sensor_id;sensor_type;location;lat;lon;timestamp;temperature;humidity
14555;DHT22;7364;50.870;4.722;2023-03-01T00:01:02;1.90;94.60
14555;DHT22;7364;50.870;4.722;2023-03-01T00:03:35;1.90;94.60
14555;DHT22;7364;50.870;4.722;2023-03-01T00:06:03;1.90;94.70
14555;DHT22;7364;50.870;4.722;2023-03-01T00:08:31;1.90;94.80
14555;DHT22;7364;50.870;4.722;2023-03-01T00:11:05;1.90;94.90
14555;DHT22;7364;50.870;4.722;2023-03-01T00:13:33;1.80;95.10
14555;DHT22;7364;50.870;4.722;2023-03-01T00:16:02;1.80;95.30
14555;DHT22;7364;50.870;4.722;2023-03-01T00:18:29;1.80;95.50
14555;DHT22;7364;50.870;4.722;2023-03-01T00:20:58;1.80;95.50
14555;DHT22;7364;50.870;4.722;2023-03-01T00:23:26;1.80;95.50
14555;DHT22;7364;50.870;4.722;2023-03-01T00:25:54;1.80;95.70
14555;DHT22;7364;50.870;4.722;2023-03-01T00:28:21;1.90;95.70
14555;DHT22;7364;50.870;4.722;2023-03-01T00:30:52;1.90;95.60
14555;DHT22;7364;50.870;4.722;2023-03-01T00:33:19;1.90;95.50
14555;DHT22;7364;50.870;4.722;2023-03-01T00:35:46;2.00;95.60
14555;DHT22;7364;50.870;4.722;2023-03-01T00:38:15;2.00;95.50
14555;DHT22;7364;50.870;4.722;2023-03-01T00:40:43;2.00;95.60
14555;DHT22;7364;50.870;4.722;2023-03-01T00:43:10;2.00;95.60
14555;DHT22;7364;50.870;4.722;2023-03-01T00:45:37;2.00;95.50
14555;DHT22;7364;50.870;4.722;2023-03-01T00:48:05;2.00;95.60
14555;DHT22;7364;50.870;4.722;2023-03-01T00:53:08;1.80;95.90
14555;DHT22;7364;50.870;4.722;2023-03-01T00:55:37;1.70;96.10
14555;DHT22;7364;50.870;4.722;2023-03-01T00:58:05;1.70;96.40
14555;DHT22;7364;50.870;4.722;2023-03-01T01:00:32;1.60;96.30
14555;DHT22;7364;50.870;4.722;2023-03-01T01:03:00;1.60;96.40
14555;DHT22;7364;50.870;4.722;2023-03-01T01:05:27;1.50;96.90
14555;DHT22;7364;50.870;4.722;2023-03-01T01:07:54;1.40;96.70
14555;DHT22;7364;50.870;4.722;2023-03-01T01:10:25;1.40;97.00
14555;DHT22;7364;50.870;4.722;2023-03-01T01:12:53;1.40;97.30
14555;DHT22;7364;50.870;4.722;2023-03-01T01:15:22;1.30;97.50
14555;DHT22;7364;50.870;4.722;2023-03-01T01:17:49;1.20;97.70
14555;DHT22;7364;50.870;4.722;2023-03-01T01:20:17;1.20;98.00
14555;DHT22;7364;50.870;4.722;2023-03-01T01:22:44;1.20;98.20
14555;DHT22;7364;50.870;4.722;2023-03-01T01:25:11;1.10;98.40
14555;DHT22;7364;50.870;4.722;2023-03-01T01:27:38;1.10;98.70
14555;DHT22;7364;50.870;4.722;2023-03-01T01:30:08;1.10;98.90
14555;DHT22;7364;50.870;4.722;2023-03-01T01:32:36;1.00;99.10
14555;DHT22;7364;50.870;4.722;2023-03-01T01:35:04;1.00;99.40
14555;DHT22;7364;50.870;4.722;2023-03-01T01:37:31;1.00;99.60
14555;DHT22;7364;50.870;4.722;2023-03-01T01:39:58;0.90;99.90
14555;DHT22;7364;50.870;4.722;2023-03-01T01:42:27;0.90;99.90
14555;DHT22;7364;50.870;4.722;2023-03-01T01:48:06;0.90;99.90
14555;DHT22;7364;50.870;4.722;2023-03-01T01:50:39;0.90;99.90
14555;DHT22;7364;50.870;4.722;2023-03-01T01:53:10;0.90;99.90
14555;DHT22;7364;50.870;4.722;2023-03-01T01:55:41;0.90;99.90
14555;DHT22;7364;50.870;4.722;2023-03-01T01:58:11;0.90;99.90
14555;DHT22;7364;50.870;4.722;2023-03-01T02:00:40;0.90;99.90
14555;DHT22;7364;50.870;4.722;2023-03-01T02:03:11;0.90;99.90
14555;DHT22;7364;50.870;4.722;2023-03-01T02:05:47;0.80;99.90
14555;DHT22;7364;50.870;4.722;2023-03-01T02:08:18;0.80;99.90
14555;DHT22;7364;50.870;4.722;2023-03-01T02:10:47;0.80;99.90
14555;DHT22;7364;50.870;4.722;2023-03-01T02:13:15;0.90;99.90
14555;DHT22;7364;50.870;4.722;2023-03-01T02:15:42;0.90;99.90
14555;DHT22;7364;50.870;4.722;2023-03-01T02:18:14;0.90;99.90
14555;DHT22;7364;50.870;4.722;2023-03-01T02:20:53;0.90;99.90
14555;DHT22;7364;50.870;4.722;2023-03-01T02:23:22;0.90;99.90
14555;DHT22;7364;50.870;4.722;2023-03-01T02:25:54;1.00;99.90
14555;DHT22;7364;50.870;4.722;2023-03-01T02:28:29;0.90;99.90
14555;DHT22;7364;50.870;4.722;2023-03-01T02:30:57;1.00;99.90
14555;DHT22;7364;50.870;4.722;2023-03-01T02:33:43;1.00;99.90
14555;DHT22;7364;50.870;4.722;2023-03-01T02:36:15;1.00;99.90
14555;DHT22;7364;50.870;4.722;2023-03-01T02:38:44;1.10;99.90
14555;DHT22;7364;50.870;4.722;2023-03-01T02:41:14;1.10;99.90
14555;DHT22;7364;50.870;4.722;2023-03-01T02:43:44;1.10;99.90
14555;DHT22;7364;50.870;4.722;2023-03-01T02:46:16;1.00;99.90
14555;DHT22;7364;50.870;4.722;2023-03-01T02:48:46;1.10;99.90
14555;DHT22;7364;50.870;4.722;2023-03-01T02:51:24;1.10;99.90
14555;DHT22;7364;50.870;4.722;2023-03-01T02:54:03;1.10;99.90
14555;DHT22;7364;50.870;4.722;2023-03-01T02:56:33;1.10;99.90
14555;DHT22;7364;50.870;4.722;2023-03-01T02:59:03;1.10;99.90
14555;DHT22;7364;50.870;4.722;2023-03-01T03:01:30;1.00;99.90
14555;DHT22;7364;50.870;4.722;2023-03-01T03:04:04;1.10;99.90
14555;DHT22;7364;50.870;4.722;2023-03-01T03:06:32;1.00;99.90
14555;DHT22;7364;50.870;4.722;2023-03-01T03:09:00;1.00;99.90
14555;DHT22;7364;50.870;4.722;2023-03-01T03:11:28;1.00;99.90
14555;DHT22;7364;50.870;4.722;2023-03-01T03:13:56;0.90;99.90
14555;DHT22;7364;50.870;4.722;2023-03-01T03:16:25;0.90;99.90
14555;DHT22;7364;50.870;4.722;2023-03-01T03:18:52;0.80;99.90
14555;DHT22;7364;50.870;4.722;2023-03-01T03:21:19;0.70;99.90
14555;DHT22;7364;50.870;4.722;2023-03-01T03:23:47;0.70;99.90
14555;DHT22;7364;50.870;4.722;2023-03-01T03:26:14;0.60;99.90
14555;DHT22;7364;50.870;4.722;2023-03-01T03:28:41;0.50;99.90
14555;DHT22;7364;50.870;4.722;2023-03-01T03:31:08;0.40;99.90
14555;DHT22;7364;50.870;4.722;2023-03-01T03:33:37;0.30;99.90
14555;DHT22;7364;50.870;4.722;2023-03-01T03:36:05;0.30;99.90
14555;DHT22;7364;50.870;4.722;2023-03-01T03:38:32;0.20;99.90
14555;DHT22;7364;50.870;4.722;2023-03-01T03:41:01;0.10;99.90
14555;DHT22;7364;50.870;4.722;2023-03-01T03:43:30;0.10;99.90
14555;DHT22;7364;50.870;4.722;2023-03-01T03:45:58;0.00;99.90
14555;DHT22;7364;50.870;4.722;2023-03-01T03:48:26;0.00;99.90
14555;DHT22;7364;50.870;4.722;2023-03-01T03:50:56;0.00;99.90
14555;DHT22;7364;50.870;4.722;2023-03-01T03:53:24;-0.10;99.90
14555;DHT22;7364;50.870;4.722;2023-03-01T03:55:52;-0.10;99.90
14555;DHT22;7364;50.870;4.722;2023-03-01T03:58:21;-0.10;99.90
14555;DHT22;7364;50.870;4.722;2023-03-01T04:00:51;-0.10;99.90
14555;DHT22;7364;50.870;4.722;2023-03-01T04:03:20;-0.10;99.90
14555;DHT22;7364;50.870;4.722;2023-03-01T04:05:48;0.00;99.90
14555;DHT22;7364;50.870;4.722;2023-03-01T04:08:18;0.00;99.90
14555;DHT22;7364;50.870;4.722;2023-03-01T04:10:50;0.10;99.90
14555;DHT22;7364;50.870;4.722;2023-03-01T04:13:19;0.10;99.90
14555;DHT22;7364;50.870;4.722;2023-03-01T04:15:48;0.00;99.90
14555;DHT22;7364;50.870;4.722;2023-03-01T04:18:17;0.00;99.90
14555;DHT22;7364;50.870;4.722;2023-03-01T04:20:45;0.00;99.90
14555;DHT22;7364;50.870;4.722;2023-03-01T04:23:14;-0.10;99.90
14555;DHT22;7364;50.870;4.722;2023-03-01T04:25:46;-0.10;99.90
14555;DHT22;7364;50.870;4.722;2023-03-01T04:28:15;-0.10;99.90
14555;DHT22;7364;50.870;4.722;2023-03-01T04:30:43;0.00;99.90
14555;DHT22;7364;50.870;4.722;2023-03-01T04:33:11;0.00;99.90
14555;DHT22;7364;50.870;4.722;2023-03-01T04:35:38;0.00;99.90
14555;DHT22;7364;50.870;4.722;2023-03-01T04:38:06;-0.10;99.90
14555;DHT22;7364;50.870;4.722;2023-03-01T04:40:34;-0.20;99.90
14555;DHT22;7364;50.870;4.722;2023-03-01T04:43:04;-0.20;99.90
14555;DHT22;7364;50.870;4.722;2023-03-01T04:45:32;-0.30;99.90
14555;DHT22;7364;50.870;4.722;2023-03-01T04:48:02;-0.20;99.90
14555;DHT22;7364;50.870;4.722;2023-03-01T04:50:29;-0.20;99.90
14555;DHT22;7364;50.870;4.722;2023-03-01T04:52:57;-0.20;99.90
14555;DHT22;7364;50.870;4.722;2023-03-01T04:55:26;-0.30;99.90
14555;DHT22;7364;50.870;4.722;2023-03-01T04:57:53;-0.30;99.90
14555;DHT22;7364;50.870;4.722;2023-03-01T05:00:23;-0.40;99.90
14555;DHT22;7364;50.870;4.722;2023-03-01T05:02:52;-0.40;99.90
14555;DHT22;7364;50.870;4.722;2023-03-01T05:05:21;-0.50;99.90
14555;DHT22;7364;50.870;4.722;2023-03-01T05:07:55;-0.50;99.90
14555;DHT22;7364;50.870;4.722;2023-03-01T05:10:23;-0.50;99.90
14555;DHT22;7364;50.870;4.722;2023-03-01T05:12:51;-0.50;99.90
14555;DHT22;7364;50.870;4.722;2023-03-01T05:15:19;-0.50;99.90
14555;DHT22;7364;50.870;4.722;2023-03-01T05:17:49;-0.50;99.90
14555;DHT22;7364;50.870;4.722;2023-03-01T05:20:17;-0.50;99.90
14555;DHT22;7364;50.870;4.722;2023-03-01T05:22:48;-0.60;99.90
14555;DHT22;7364;50.870;4.722;2023-03-01T05:25:16;-0.60;99.90
14555;DHT22;7364;50.870;4.722;2023-03-01T05:27:44;-0.60;99.90
14555;DHT22;7364;50.870;4.722;2023-03-01T05:30:12;-0.60;99.90
14555;DHT22;7364;50.870;4.722;2023-03-01T05:32:49;-0.60;99.90
14555;DHT22;7364;50.870;4.722;2023-03-01T05:35:23;-0.70;99.90
14555;DHT22;7364;50.870;4.722;2023-03-01T05:37:50;-0.70;99.90
14555;DHT22;7364;50.870;4.722;2023-03-01T05:40:20;-0.70;99.90
14555;DHT22;7364;50.870;4.722;2023-03-01T05:42:50;-0.70;99.90
14555;DHT22;7364;50.870;4.722;2023-03-01T05:45:17;-0.80;99.90
14555;DHT22;7364;50.870;4.722;2023-03-01T05:47:46;-0.80;99.90
14555;DHT22;7364;50.870;4.722;2023-03-01T05:50:17;-0.80;99.90
14555;DHT22;7364;50.870;4.722;2023-03-01T05:52:46;-0.80;99.90
14555;DHT22;7364;50.870;4.722;2023-03-01T05:55:15;-0.80;99.90
14555;DHT22;7364;50.870;4.722;2023-03-01T05:57:43;-0.80;99.90
14555;DHT22;7364;50.870;4.722;2023-03-01T06:00:11;-0.80;99.90
14555;DHT22;7364;50.870;4.722;2023-03-01T06:02:39;-0.80;99.90
14555;DHT22;7364;50.870;4.722;2023-03-01T06:05:09;-0.80;99.90
14555;DHT22;7364;50.870;4.722;2023-03-01T06:07:38;-0.80;99.90
14555;DHT22;7364;50.870;4.722;2023-03-01T06:10:07;-0.80;99.90
14555;DHT22;7364;50.870;4.722;2023-03-01T06:12:37;-0.80;99.90
14555;DHT22;7364;50.870;4.722;2023-03-01T06:15:06;-0.80;99.90
14555;DHT22;7364;50.870;4.722;2023-03-01T06:17:36;-0.80;99.90
14555;DHT22;7364;50.870;4.722;2023-03-01T06:20:06;-0.80;99.90
14555;DHT22;7364;50.870;4.722;2023-03-01T06:22:34;-0.70;99.90
14555;DHT22;7364;50.870;4.722;2023-03-01T06:25:03;-0.70;99.90
14555;DHT22;7364;50.870;4.722;2023-03-01T06:27:31;-0.70;99.90
14555;DHT22;7364;50.870;4.722;2023-03-01T06:29:59;-0.70;99.90
14555;DHT22;7364;50.870;4.722;2023-03-01T06:32:26;-0.70;99.90
14555;DHT22;7364;50.870;4.722;2023-03-01T06:34:53;-0.70;99.90
14555;DHT22;7364;50.870;4.722;2023-03-01T06:37:20;-0.60;99.90
14555;DHT22;7364;50.870;4.722;2023-03-01T06:39:47;-0.60;99.90
14555;DHT22;7364;50.870;4.722;2023-03-01T06:42:16;-0.60;99.90
14555;DHT22;7364;50.870;4.722;2023-03-01T06:44:46;-0.50;99.90
14555;DHT22;7364;50.870;4.722;2023-03-01T06:47:13;-0.40;99.90
14555;DHT22;7364;50.870;4.722;2023-03-01T06:49:41;-0.40;99.90
14555;DHT22;7364;50.870;4.722;2023-03-01T06:52:08;-0.30;99.90
14555;DHT22;7364;50.870;4.722;2023-03-01T06:54:35;-0.40;99.90
14555;DHT22;7364;50.870;4.722;2023-03-01T06:57:03;-0.20;99.90
14555;DHT22;7364;50.870;4.722;2023-03-01T06:59:31;-0.10;99.90
14555;DHT22;7364;50.870;4.722;2023-03-01T07:01:58;0.00;99.90
14555;DHT22;7364;50.870;4.722;2023-03-01T07:04:26;0.00;99.90
14555;DHT22;7364;50.870;4.722;2023-03-01T07:06:54;0.00;99.90
14555;DHT22;7364;50.870;4.722;2023-03-01T07:09:22;0.00;99.90
14555;DHT22;7364;50.870;4.722;2023-03-01T07:11:50;0.20;99.90
14555;DHT22;7364;50.870;4.722;2023-03-01T07:14:17;0.20;99.90
14555;DHT22;7364;50.870;4.722;2023-03-01T07:16:46;0.30;99.90
14555;DHT22;7364;50.870;4.722;2023-03-01T07:19:14;0.30;99.90
14555;DHT22;7364;50.870;4.722;2023-03-01T07:21:41;0.30;99.90
14555;DHT22;7364;50.870;4.722;2023-03-01T07:24:09;0.20;99.90
14555;DHT22;7364;50.870;4.722;2023-03-01T07:26:36;0.10;99.90
14555;DHT22;7364;50.870;4.722;2023-03-01T07:29:05;0.10;99.90
14555;DHT22;7364;50.870;4.722;2023-03-01T07:31:33;0.00;99.90
14555;DHT22;7364;50.870;4.722;2023-03-01T07:34:03;0.00;99.90
14555;DHT22;7364;50.870;4.722;2023-03-01T07:36:30;0.10;99.90
14555;DHT22;7364;50.870;4.722;2023-03-01T07:38:57;0.20;99.90
14555;DHT22;7364;50.870;4.722;2023-03-01T07:41:25;0.20;99.90
14555;DHT22;7364;50.870;4.722;2023-03-01T07:43:52;0.30;99.90
14555;DHT22;7364;50.870;4.722;2023-03-01T07:46:19;0.20;99.90
14555;DHT22;7364;50.870;4.722;2023-03-01T07:48:47;0.20;99.90
14555;DHT22;7364;50.870;4.722;2023-03-01T07:51:16;0.30;99.90
14555;DHT22;7364;50.870;4.722;2023-03-01T07:53:46;0.30;99.90
14555;DHT22;7364;50.870;4.722;2023-03-01T07:56:15;0.30;99.90
14555;DHT22;7364;50.870;4.722;2023-03-01T07:58:44;0.40;99.90
14555;DHT22;7364;50.870;4.722;2023-03-01T08:01:14;0.50;99.90
14555;DHT22;7364;50.870;4.722;2023-03-01T08:03:42;0.70;99.90
14555;DHT22;7364;50.870;4.722;2023-03-01T08:06:10;0.70;99.90
14555;DHT22;7364;50.870;4.722;2023-03-01T08:08:40;0.80;99.90
14555;DHT22;7364;50.870;4.722;2023-03-01T08:11:10;0.90;99.90
14555;DHT22;7364;50.870;4.722;2023-03-01T08:13:37;1.00;99.90
14555;DHT22;7364;50.870;4.722;2023-03-01T08:16:07;1.00;99.90
14555;DHT22;7364;50.870;4.722;2023-03-01T08:18:35;1.00;99.90
14555;DHT22;7364;50.870;4.722;2023-03-01T08:21:03;1.00;99.90
14555;DHT22;7364;50.870;4.722;2023-03-01T08:23:30;1.10;99.90
14555;DHT22;7364;50.870;4.722;2023-03-01T08:26:06;1.10;99.90
14555;DHT22;7364;50.870;4.722;2023-03-01T08:28:33;1.30;99.90
14555;DHT22;7364;50.870;4.722;2023-03-01T08:31:01;1.30;99.90
14555;DHT22;7364;50.870;4.722;2023-03-01T08:33:28;1.30;99.90
14555;DHT22;7364;50.870;4.722;2023-03-01T08:36:03;1.60;99.90
14555;DHT22;7364;50.870;4.722;2023-03-01T08:38:32;1.60;99.90
14555;DHT22;7364;50.870;4.722;2023-03-01T08:41:00;1.80;99.90
14555;DHT22;7364;50.870;4.722;2023-03-01T08:43:29;1.90;99.90
14555;DHT22;7364;50.870;4.722;2023-03-01T08:45:57;2.00;99.90
14555;DHT22;7364;50.870;4.722;2023-03-01T08:48:25;1.90;99.90
14555;DHT22;7364;50.870;4.722;2023-03-01T08:50:54;2.00;99.90
14555;DHT22;7364;50.870;4.722;2023-03-01T08:53:21;2.10;99.90
14555;DHT22;7364;50.870;4.722;2023-03-01T08:55:48;2.30;99.90
14555;DHT22;7364;50.870;4.722;2023-03-01T08:58:16;2.40;99.90
14555;DHT22;7364;50.870;4.722;2023-03-01T09:00:46;2.40;99.90
14555;DHT22;7364;50.870;4.722;2023-03-01T09:03:17;2.10;99.90
14555;DHT22;7364;50.870;4.722;2023-03-01T09:05:44;2.00;99.90
14555;DHT22;7364;50.870;4.722;2023-03-01T09:08:12;2.40;99.90
14555;DHT22;7364;50.870;4.722;2023-03-01T09:10:39;2.60;99.90
14555;DHT22;7364;50.870;4.722;2023-03-01T09:13:06;2.50;99.90
14555;DHT22;7364;50.870;4.722;2023-03-01T09:15:33;2.50;99.90
14555;DHT22;7364;50.870;4.722;2023-03-01T09:18:02;2.80;99.90
14555;DHT22;7364;50.870;4.722;2023-03-01T09:20:30;2.70;99.90
14555;DHT22;7364;50.870;4.722;2023-03-01T09:22:58;2.80;99.90
14555;DHT22;7364;50.870;4.722;2023-03-01T09:25:26;3.00;99.90
14555;DHT22;7364;50.870;4.722;2023-03-01T09:27:54;3.20;99.90
14555;DHT22;7364;50.870;4.722;2023-03-01T09:30:22;3.00;99.90
14555;DHT22;7364;50.870;4.722;2023-03-01T09:32:50;3.10;99.90
14555;DHT22;7364;50.870;4.722;2023-03-01T09:35:19;3.50;99.90
14555;DHT22;7364;50.870;4.722;2023-03-01T09:37:48;3.90;99.90
14555;DHT22;7364;50.870;4.722;2023-03-01T09:40:27;4.20;99.90
14555;DHT22;7364;50.870;4.722;2023-03-01T09:43:01;4.60;99.90
14555;DHT22;7364;50.870;4.722;2023-03-01T09:45:34;4.80;99.90
14555;DHT22;7364;50.870;4.722;2023-03-01T09:48:02;5.70;99.50
14555;DHT22;7364;50.870;4.722;2023-03-01T09:50:35;6.10;98.80
14555;DHT22;7364;50.870;4.722;2023-03-01T09:53:07;6.50;97.10
14555;DHT22;7364;50.870;4.722;2023-03-01T09:55:42;6.70;96.50
14555;DHT22;7364;50.870;4.722;2023-03-01T10:01:27;8.30;94.70
14555;DHT22;7364;50.870;4.722;2023-03-01T10:04:09;9.00;93.20
14555;DHT22;7364;50.870;4.722;2023-03-01T10:06:44;8.90;92.30
14555;DHT22;7364;50.870;4.722;2023-03-01T10:09:16;8.20;91.00
14555;DHT22;7364;50.870;4.722;2023-03-01T10:11:47;7.30;91.90
14555;DHT22;7364;50.870;4.722;2023-03-01T10:14:27;7.70;92.70
14555;DHT22;7364;50.870;4.722;2023-03-01T10:16:57;8.30;92.50
14555;DHT22;7364;50.870;4.722;2023-03-01T10:19:32;9.60;90.60
14555;DHT22;7364;50.870;4.722;2023-03-01T10:22:09;9.50;87.80
14555;DHT22;7364;50.870;4.722;2023-03-01T10:24:38;9.80;88.20
14555;DHT22;7364;50.870;4.722;2023-03-01T10:27:09;8.40;86.90
14555;DHT22;7364;50.870;4.722;2023-03-01T10:29:44;8.70;90.00
14555;DHT22;7364;50.870;4.722;2023-03-01T10:32:13;9.60;88.80
14555;DHT22;7364;50.870;4.722;2023-03-01T10:34:41;10.20;83.90
14555;DHT22;7364;50.870;4.722;2023-03-01T10:37:12;10.80;82.10
14555;DHT22;7364;50.870;4.722;2023-03-01T10:39:58;11.40;80.00
14555;DHT22;7364;50.870;4.722;2023-03-01T10:42:33;11.90;78.10
14555;DHT22;7364;50.870;4.722;2023-03-01T10:45:16;11.70;77.80
14555;DHT22;7364;50.870;4.722;2023-03-01T10:47:46;11.80;77.10
14555;DHT22;7364;50.870;4.722;2023-03-01T10:50:22;11.10;77.60
14555;DHT22;7364;50.870;4.722;2023-03-01T10:52:58;11.60;76.80
14555;DHT22;7364;50.870;4.722;2023-03-01T10:55:31;11.90;76.00
14555;DHT22;7364;50.870;4.722;2023-03-01T10:58:09;12.40;74.10
14555;DHT22;7364;50.870;4.722;2023-03-01T11:00:50;12.40;73.30
14555;DHT22;7364;50.870;4.722;2023-03-01T11:03:22;12.80;72.30
14555;DHT22;7364;50.870;4.722;2023-03-01T11:05:53;13.10;70.60
14555;DHT22;7364;50.870;4.722;2023-03-01T11:08:36;13.80;67.20
14555;DHT22;7364;50.870;4.722;2023-03-01T11:11:07;14.10;64.60
14555;DHT22;7364;50.870;4.722;2023-03-01T11:13:52;13.30;66.20
14555;DHT22;7364;50.870;4.722;2023-03-01T11:16:26;14.00;64.40
14555;DHT22;7364;50.870;4.722;2023-03-01T11:19:13;14.20;63.20
14555;DHT22;7364;50.870;4.722;2023-03-01T11:21:44;14.00;63.40
14555;DHT22;7364;50.870;4.722;2023-03-01T11:24:19;13.10;63.80
14555;DHT22;7364;50.870;4.722;2023-03-01T11:26:50;12.60;64.80
14555;DHT22;7364;50.870;4.722;2023-03-01T11:29:27;13.10;65.20
14555;DHT22;7364;50.870;4.722;2023-03-01T11:32:00;13.70;62.90
14555;DHT22;7364;50.870;4.722;2023-03-01T11:34:44;13.70;62.10
14555;DHT22;7364;50.870;4.722;2023-03-01T11:37:21;12.80;63.70
14555;DHT22;7364;50.870;4.722;2023-03-01T11:39:59;13.70;63.00
14555;DHT22;7364;50.870;4.722;2023-03-01T11:42:42;13.70;62.60
14555;DHT22;7364;50.870;4.722;2023-03-01T11:45:13;14.40;61.10
14555;DHT22;7364;50.870;4.722;2023-03-01T11:50:40;15.90;58.30
14555;DHT22;7364;50.870;4.722;2023-03-01T11:53:47;16.50;57.70
14555;DHT22;7364;50.870;4.722;2023-03-01T11:56:27;16.00;57.30
14555;DHT22;7364;50.870;4.722;2023-03-01T11:59:30;16.90;56.00
14555;DHT22;7364;50.870;4.722;2023-03-01T12:02:27;17.60;54.30
14555;DHT22;7364;50.870;4.722;2023-03-01T12:05:38;17.40;54.20
14555;DHT22;7364;50.870;4.722;2023-03-01T12:08:14;17.40;55.10
14555;DHT22;7364;50.870;4.722;2023-03-01T12:10:51;18.30;52.20
14555;DHT22;7364;50.870;4.722;2023-03-01T12:13:57;17.90;52.00
14555;DHT22;7364;50.870;4.722;2023-03-01T12:16:40;17.90;50.90
14555;DHT22;7364;50.870;4.722;2023-03-01T12:19:25;18.20;50.80
14555;DHT22;7364;50.870;4.722;2023-03-01T12:22:09;18.40;49.50
14555;DHT22;7364;50.870;4.722;2023-03-01T12:24:57;18.40;48.20
14555;DHT22;7364;50.870;4.722;2023-03-01T12:27:38;18.20;48.90
14555;DHT22;7364;50.870;4.722;2023-03-01T12:30:25;18.30;50.00
14555;DHT22;7364;50.870;4.722;2023-03-01T12:33:04;17.80;50.10
14555;DHT22;7364;50.870;4.722;2023-03-01T12:38:36;18.70;49.60
14555;DHT22;7364;50.870;4.722;2023-03-01T12:41:21;19.40;48.20
14555;DHT22;7364;50.870;4.722;2023-03-01T12:44:05;19.90;47.90
14555;DHT22;7364;50.870;4.722;2023-03-01T12:46:47;19.30;46.80
14555;DHT22;7364;50.870;4.722;2023-03-01T12:49:23;17.50;48.00
14555;DHT22;7364;50.870;4.722;2023-03-01T12:51:54;15.60;50.80
14555;DHT22;7364;50.870;4.722;2023-03-01T12:54:27;16.30;50.40
14555;DHT22;7364;50.870;4.722;2023-03-01T12:56:56;17.40;48.60
14555;DHT22;7364;50.870;4.722;2023-03-01T12:59:29;18.40;47.60
14555;DHT22;7364;50.870;4.722;2023-03-01T13:02:05;19.20;46.80
14555;DHT22;7364;50.870;4.722;2023-03-01T13:04:53;19.80;45.80
14555;DHT22;7364;50.870;4.722;2023-03-01T13:07:29;20.30;47.40
14555;DHT22;7364;50.870;4.722;2023-03-01T13:10:13;18.90;45.50
14555;DHT22;7364;50.870;4.722;2023-03-01T13:12:48;18.90;47.40
14555;DHT22;7364;50.870;4.722;2023-03-01T13:15:32;18.40;46.70
14555;DHT22;7364;50.870;4.722;2023-03-01T13:18:03;17.60;47.50
14555;DHT22;7364;50.870;4.722;2023-03-01T13:20:34;18.20;47.80
14555;DHT22;7364;50.870;4.722;2023-03-01T13:23:23;18.70;47.00
14555;DHT22;7364;50.870;4.722;2023-03-01T13:26:10;19.50;46.50
14555;DHT22;7364;50.870;4.722;2023-03-01T13:28:49;19.70;46.50
14555;DHT22;7364;50.870;4.722;2023-03-01T13:34:55;17.90;47.20
14555;DHT22;7364;50.870;4.722;2023-03-01T13:37:28;16.90;49.00
14555;DHT22;7364;50.870;4.722;2023-03-01T13:40:02;18.20;49.00
14555;DHT22;7364;50.870;4.722;2023-03-01T13:42:42;18.20;47.10
14555;DHT22;7364;50.870;4.722;2023-03-01T13:45:24;17.80;47.60
14555;DHT22;7364;50.870;4.722;2023-03-01T13:47:55;17.90;47.50
14555;DHT22;7364;50.870;4.722;2023-03-01T13:50:29;17.40;47.90
14555;DHT22;7364;50.870;4.722;2023-03-01T13:53:02;17.80;47.90
14555;DHT22;7364;50.870;4.722;2023-03-01T13:55:40;17.80;47.80
14555;DHT22;7364;50.870;4.722;2023-03-01T13:58:16;19.00;46.60
14555;DHT22;7364;50.870;4.722;2023-03-01T14:00:46;18.70;45.20
14555;DHT22;7364;50.870;4.722;2023-03-01T14:03:15;18.60;46.00
14555;DHT22;7364;50.870;4.722;2023-03-01T14:06:03;18.60;46.70
14555;DHT22;7364;50.870;4.722;2023-03-01T14:08:32;18.90;45.90
14555;DHT22;7364;50.870;4.722;2023-03-01T14:11:33;19.50;46.30
14555;DHT22;7364;50.870;4.722;2023-03-01T14:14:17;20.90;44.70
14555;DHT22;7364;50.870;4.722;2023-03-01T14:16:53;22.20;43.10
14555;DHT22;7364;50.870;4.722;2023-03-01T14:19:25;23.00;42.20
14555;DHT22;7364;50.870;4.722;2023-03-01T14:22:10;22.70;41.20
14555;DHT22;7364;50.870;4.722;2023-03-01T14:24:46;22.50;42.60
14555;DHT22;7364;50.870;4.722;2023-03-01T14:27:16;22.00;40.90
14555;DHT22;7364;50.870;4.722;2023-03-01T14:29:54;20.60;41.40
14555;DHT22;7364;50.870;4.722;2023-03-01T14:32:26;20.80;41.70
14555;DHT22;7364;50.870;4.722;2023-03-01T14:34:54;20.10;41.80
14555;DHT22;7364;50.870;4.722;2023-03-01T14:37:26;19.10;43.40
14555;DHT22;7364;50.870;4.722;2023-03-01T14:39:55;17.40;45.00
14555;DHT22;7364;50.870;4.722;2023-03-01T14:42:26;16.30;46.20
14555;DHT22;7364;50.870;4.722;2023-03-01T14:44:57;15.90;47.10
14555;DHT22;7364;50.870;4.722;2023-03-01T14:47:28;15.90;46.70
14555;DHT22;7364;50.870;4.722;2023-03-01T14:50:01;15.80;46.90
14555;DHT22;7364;50.870;4.722;2023-03-01T14:52:35;15.70;47.10
14555;DHT22;7364;50.870;4.722;2023-03-01T14:55:06;15.10;47.20
14555;DHT22;7364;50.870;4.722;2023-03-01T14:57:34;14.50;47.60
14555;DHT22;7364;50.870;4.722;2023-03-01T15:00:05;14.20;49.10
14555;DHT22;7364;50.870;4.722;2023-03-01T15:02:34;13.70;49.30
14555;DHT22;7364;50.870;4.722;2023-03-01T15:05:04;13.50;49.80
14555;DHT22;7364;50.870;4.722;2023-03-01T15:07:36;13.00;50.20
14555;DHT22;7364;50.870;4.722;2023-03-01T15:10:07;12.70;50.60
14555;DHT22;7364;50.870;4.722;2023-03-01T15:12:42;12.50;51.40
14555;DHT22;7364;50.870;4.722;2023-03-01T15:15:32;12.60;51.20
14555;DHT22;7364;50.870;4.722;2023-03-01T15:18:02;12.80;51.40
14555;DHT22;7364;50.870;4.722;2023-03-01T15:20:31;13.00;50.50
14555;DHT22;7364;50.870;4.722;2023-03-01T15:23:03;13.00;50.30
14555;DHT22;7364;50.870;4.722;2023-03-01T15:25:32;12.70;50.10
14555;DHT22;7364;50.870;4.722;2023-03-01T15:28:01;12.50;51.20
14555;DHT22;7364;50.870;4.722;2023-03-01T15:30:31;12.50;51.10
14555;DHT22;7364;50.870;4.722;2023-03-01T15:33:25;12.40;51.60
14555;DHT22;7364;50.870;4.722;2023-03-01T15:35:55;12.60;51.20
14555;DHT22;7364;50.870;4.722;2023-03-01T15:38:33;12.60;51.20
14555;DHT22;7364;50.870;4.722;2023-03-01T15:41:20;12.70;51.30
14555;DHT22;7364;50.870;4.722;2023-03-01T15:43:49;12.60;52.00
14555;DHT22;7364;50.870;4.722;2023-03-01T15:46:28;12.60;52.00
14555;DHT22;7364;50.870;4.722;2023-03-01T15:48:58;12.60;52.80
14555;DHT22;7364;50.870;4.722;2023-03-01T15:51:34;12.20;53.10
14555;DHT22;7364;50.870;4.722;2023-03-01T15:54:06;12.00;53.70
14555;DHT22;7364;50.870;4.722;2023-03-01T15:56:40;11.80;53.90
14555;DHT22;7364;50.870;4.722;2023-03-01T15:59:10;11.90;54.00
14555;DHT22;7364;50.870;4.722;2023-03-01T16:01:39;11.70;54.90
14555;DHT22;7364;50.870;4.722;2023-03-01T16:04:08;11.70;55.40
14555;DHT22;7364;50.870;4.722;2023-03-01T16:06:38;11.50;54.80
14555;DHT22;7364;50.870;4.722;2023-03-01T16:09:07;11.30;55.50
14555;DHT22;7364;50.870;4.722;2023-03-01T16:11:35;11.30;55.60
14555;DHT22;7364;50.870;4.722;2023-03-01T16:14:05;11.30;55.40
14555;DHT22;7364;50.870;4.722;2023-03-01T16:16:33;11.40;55.70
14555;DHT22;7364;50.870;4.722;2023-03-01T16:19:01;11.50;55.30
14555;DHT22;7364;50.870;4.722;2023-03-01T16:21:28;11.50;54.80
14555;DHT22;7364;50.870;4.722;2023-03-01T16:23:56;11.50;55.40
14555;DHT22;7364;50.870;4.722;2023-03-01T16:26:25;11.30;54.40
14555;DHT22;7364;50.870;4.722;2023-03-01T16:28:54;11.30;54.30
14555;DHT22;7364;50.870;4.722;2023-03-01T16:31:23;11.30;54.50
14555;DHT22;7364;50.870;4.722;2023-03-01T16:33:53;11.20;54.60
14555;DHT22;7364;50.870;4.722;2023-03-01T16:36:23;11.00;55.10
14555;DHT22;7364;50.870;4.722;2023-03-01T16:38:51;11.00;55.50